Time;durP1;ratioP1;P1;durP2;ratioP2;P2;SDS_P1;SDS_P2;PMS_P1;PMS_P2;Temp;Humidity;BMP_temperature;BMP_pressure;BME280_temperature;BME280_humidity;BME280_pressure;Samples;Min_cycle;Max_cycle;Signal;HPM_P1;HPM_P2
2022/05/26 00:01:23;;;;;;;9.83;3.37;;;;;;;18.07;42.69;99052.75;1731366;82;21130;-67
2022/05/26 00:03:51;;;;;;;10.23;3.83;;;;;;;18.06;42.89;99043.60;1731463;82;21077;-66
2022/05/26 00:06:22;;;;;;;11.20;3.22;;;;;;;18.05;43.14;99037.02;1731420;82;21121;-65
2022/05/26 00:08:50;;;;;;;4.62;2.40;;;;;;;18.03;43.76;99028.23;1731228;82;21583;-64
2022/05/26 00:11:21;;;;;;;5.42;2.75;;;;;;;17.97;43.99;99031.37;1704238;82;21093;-65
2022/05/26 00:13:47;;;;;;;6.65;2.85;;;;;;;17.95;44.20;99025.95;1735303;81;21064;-67
2022/05/26 00:16:14;;;;;;;6.58;2.62;;;;;;;17.94;44.26;99018.20;1735486;81;22288;-65
2022/05/26 00:18:40;;;;;;;9.35;2.72;;;;;;;17.93;44.55;99022.77;1730549;82;21548;-64
2022/05/26 00:21:07;;;;;;;7.12;2.92;;;;;;;17.91;44.82;99022.34;1730133;82;21512;-65
2022/05/26 00:23:33;;;;;;;11.30;3.02;;;;;;;17.88;45.32;99022.50;1731288;82;21370;-66
2022/05/26 00:26:00;;;;;;;10.23;3.27;;;;;;;17.85;45.55;99024.66;1731071;82;21093;-65
2022/05/26 00:28:26;;;;;;;6.03;2.45;;;;;;;17.81;45.89;99023.23;1731781;82;21000;-64
2022/05/26 00:30:53;;;;;;;9.25;2.62;;;;;;;17.77;46.11;99022.41;1731818;82;21634;-66
2022/05/26 00:33:19;;;;;;;6.67;3.27;;;;;;;17.74;46.29;99013.42;1723445;81;21015;-66
2022/05/26 00:35:46;;;;;;;3.35;2.30;;;;;;;17.72;46.52;99014.39;1731943;82;21024;-66
2022/05/26 00:38:15;;;;;;;7.50;3.20;;;;;;;17.69;47.14;99014.55;1731558;82;21130;-67
2022/05/26 00:40:43;;;;;;;3.50;2.45;;;;;;;17.67;47.34;99009.16;1732004;82;21051;-66
2022/05/26 00:43:10;;;;;;;6.05;2.10;;;;;;;17.64;47.51;99004.55;1731637;82;21019;-66
2022/05/26 00:45:51;;;;;;;4.55;2.37;;;;;;;17.65;47.74;99001.19;1731442;82;21012;-67
2022/05/26 00:48:20;;;;;;;9.40;3.30;;;;;;;17.63;48.01;98998.78;1731919;82;21086;-66
2022/05/26 00:50:54;;;;;;;5.40;2.12;;;;;;;17.64;48.14;98997.59;1722674;82;21113;-65
2022/05/26 00:53:29;;;;;;;4.33;2.22;;;;;;;17.65;48.34;98997.00;1730832;81;21501;-67
2022/05/26 00:55:59;;;;;;;4.90;2.17;;;;;;;17.65;48.65;98994.22;1732119;82;21218;-66
2022/05/26 00:58:30;;;;;;;6.42;2.40;;;;;;;17.64;48.73;98989.81;1732031;82;20968;-66
2022/05/26 01:00:59;;;;;;;10.03;2.20;;;;;;;17.64;48.91;98993.41;1731908;82;21048;-67
2022/05/26 01:03:42;;;;;;;8.18;2.37;;;;;;;17.64;48.98;98988.42;1707813;81;21265;-66
2022/05/26 01:06:33;;;;;;;5.75;2.02;;;;;;;17.65;49.04;98983.08;1732135;82;21480;-67
2022/05/26 01:09:02;;;;;;;5.30;1.82;;;;;;;17.66;49.05;98977.70;1732139;82;21007;-65
2022/05/26 01:11:31;;;;;;;6.47;2.95;;;;;;;17.67;49.07;98971.55;1731930;82;21070;-67
2022/05/26 01:14:06;;;;;;;7.17;1.90;;;;;;;17.67;49.04;98970.97;1731887;82;21533;-67
2022/05/26 01:16:44;;;;;;;7.28;2.65;;;;;;;17.68;48.94;98963.39;1728091;81;21236;-67
2022/05/26 01:19:25;;;;;;;9.70;2.12;;;;;;;17.69;48.84;98971.37;1722962;81;21550;-65
2022/05/26 01:21:57;;;;;;;5.60;2.15;;;;;;;17.71;48.69;98966.80;1725300;83;21023;-65
2022/05/26 01:25:10;;;;;;;9.13;2.33;;;;;;;17.72;48.56;98961.45;1726489;83;21067;-66
2022/05/26 01:27:40;;;;;;;5.15;2.17;;;;;;;17.72;48.37;98958.09;1623843;87;21070;-66
2022/05/26 01:30:21;;;;;;;4.60;2.10;;;;;;;17.73;48.27;98963.86;1687182;81;21258;-67
2022/05/26 01:32:56;;;;;;;10.85;1.77;;;;;;;17.73;48.12;98968.04;1706250;82;21019;-67
2022/05/26 01:35:53;;;;;;;6.50;2.35;;;;;;;17.73;48.16;98968.62;1703539;84;21024;-68
2022/05/26 01:38:31;;;;;;;10.93;2.70;;;;;;;17.73;48.20;98972.80;1704165;84;21013;-66
2022/05/26 01:41:09;;;;;;;7.67;2.37;;;;;;;17.72;48.00;98975.39;1703431;84;21062;-66
2022/05/26 01:44:15;;;;;;;12.63;2.72;;;;;;;17.70;47.96;98963.23;1703535;84;21176;-68
2022/05/26 01:46:45;;;;;;;17.73;2.52;;;;;;;17.70;47.81;98958.25;1704166;84;21595;-63
2022/05/26 01:49:32;;;;;;;11.85;2.45;;;;;;;17.68;47.62;98960.61;1704052;84;21074;-65
2022/05/26 01:52:31;;;;;;;8.20;2.90;;;;;;;17.67;47.48;98957.05;1703403;82;21611;-65
2022/05/26 01:55:12;;;;;;;10.93;2.00;;;;;;;17.67;47.45;98954.26;1704196;84;21235;-66
2022/05/26 01:57:54;;;;;;;10.63;2.25;;;;;;;17.65;47.62;98945.48;1704162;84;21169;-66
2022/05/26 02:00:20;;;;;;;9.30;2.02;;;;;;;17.63;47.60;98943.66;1666202;84;21023;-67
2022/05/26 02:03:14;;;;;;;6.10;1.60;;;;;;;17.60;47.62;98941.64;1704129;84;21536;-65
2022/05/26 02:05:44;;;;;;;6.08;2.00;;;;;;;17.56;47.70;98939.40;1703929;84;21039;-66
2022/05/26 02:08:15;;;;;;;8.80;2.20;;;;;;;17.54;47.74;98932.83;1704142;84;21567;-67
2022/05/26 02:10:56;;;;;;;7.10;2.22;;;;;;;17.52;47.79;98919.86;1704335;84;21121;-63
2022/05/26 02:13:30;;;;;;;10.93;2.58;;;;;;;17.51;47.86;98928.02;1703990;84;21555;-65
2022/05/26 02:16:02;;;;;;;9.40;2.45;;;;;;;17.48;47.89;98926.00;1687226;84;21435;-66
2022/05/26 02:18:37;;;;;;;7.60;2.12;;;;;;;17.46;48.05;98925.58;1688951;83;21032;-65
2022/05/26 02:21:11;;;;;;;15.75;2.25;;;;;;;17.42;48.08;98921.97;1691654;84;21504;-67
2022/05/26 02:23:52;;;;;;;16.45;2.20;;;;;;;17.40;48.17;98919.55;1691704;84;21168;-68
2022/05/26 02:26:19;;;;;;;9.53;2.22;;;;;;;17.38;48.17;98925.49;1691344;83;21012;-64
2022/05/26 02:31:31;;;;;;;5.17;2.00;;;;;;;17.34;48.38;98916.32;1691863;84;21046;-64
2022/05/26 02:34:00;;;;;;;7.35;2.10;;;;;;;17.34;48.42;98918.30;1698272;83;21607;-64
2022/05/26 02:36:31;;;;;;;8.38;2.15;;;;;;;17.31;48.66;98926.83;1692296;84;21799;-66
2022/05/26 02:38:58;;;;;;;5.03;1.70;;;;;;;17.28;48.82;98922.81;1691696;84;21012;-65
2022/05/26 02:41:24;;;;;;;6.35;2.47;;;;;;;17.26;48.98;98924.38;1692213;84;21509;-66
2022/05/26 02:43:51;;;;;;;12.35;2.20;;;;;;;17.24;49.39;98936.48;1691853;84;21039;-67
2022/05/26 02:46:53;;;;;;;10.10;2.98;;;;;;;17.18;50.21;98937.40;1692180;84;21024;-66
2022/05/26 02:49:34;;;;;;;8.70;2.25;;;;;;;17.14;51.71;98942.92;1692502;84;21516;-64
2022/05/26 02:52:43;;;;;;;7.03;3.22;;;;;;;17.06;54.36;98952.95;1694551;83;21084;-65
2022/05/26 02:55:22;;;;;;;7.05;2.58;;;;;;;16.89;55.37;98947.56;1691800;84;21088;-66
2022/05/26 02:58:17;;;;;;;7.22;2.40;;;;;;;16.71;56.21;98945.94;1668287;84;21690;-66
2022/05/26 03:01:00;;;;;;;9.65;2.37;;;;;;;16.60;56.67;98932.48;1690837;84;21103;-65
2022/05/26 03:03:40;;;;;;;5.85;3.25;;;;;;;16.51;57.12;98930.74;1692089;84;21237;-66
2022/05/26 03:06:14;;;;;;;8.38;2.30;;;;;;;16.44;57.53;98927.88;1684093;84;20912;-65
2022/05/26 03:08:42;;;;;;;7.95;2.92;;;;;;;16.38;57.81;98919.05;1692357;84;21564;-65
2022/05/26 03:11:14;;;;;;;5.62;2.12;;;;;;;16.33;58.07;98913.00;1692743;83;21068;-65
2022/05/26 03:13:40;;;;;;;10.15;2.62;;;;;;;16.26;58.32;98909.52;1675541;83;21536;-63
2022/05/26 03:16:07;;;;;;;10.55;2.65;;;;;;;16.21;59.13;98909.84;1687884;83;21247;-65
2022/05/26 03:18:33;;;;;;;10.13;2.85;;;;;;;16.15;59.67;98909.38;1692089;84;21071;-63
2022/05/26 03:21:01;;;;;;;8.10;2.70;;;;;;;16.09;60.58;98911.66;1692162;84;21062;-65
2022/05/26 03:23:27;;;;;;;11.38;2.98;;;;;;;16.02;61.49;98913.73;1692177;84;21047;-64
2022/05/26 03:25:58;;;;;;;7.87;2.62;;;;;;;15.97;62.58;98915.41;1692232;84;21035;-68
2022/05/26 03:28:26;;;;;;;9.45;3.08;;;;;;;15.87;63.72;98907.69;1691900;84;21171;-69
2022/05/26 03:30:52;;;;;;;15.48;2.75;;;;;;;15.75;64.83;98906.72;1692328;84;21019;-68
2022/05/26 03:33:20;;;;;;;15.58;3.55;;;;;;;15.65;65.44;98908.14;1692283;84;20996;-68
2022/05/26 03:41:19;;;;;;;8.83;3.00;;;;;;;15.37;68.18;98905.04;1692465;84;21317;-68
2022/05/26 03:43:53;;;;;;;15.58;2.92;;;;;;;15.28;69.08;98911.42;1692329;84;21083;-69
2022/05/26 03:46:20;;;;;;;12.85;2.75;;;;;;;15.20;70.02;98919.60;1692237;84;21253;-67
2022/05/26 03:48:46;;;;;;;7.72;2.58;;;;;;;15.12;70.79;98907.34;1692301;84;21079;-65
2022/05/26 03:51:13;;;;;;;9.40;3.05;;;;;;;15.05;71.60;98905.22;1691879;84;21027;-68
2022/05/26 03:53:39;;;;;;;9.73;2.80;;;;;;;14.97;72.34;98923.70;1692208;84;21194;-70
2022/05/26 03:56:08;;;;;;;9.63;3.40;;;;;;;14.93;72.93;98908.94;1692063;84;20981;-68
2022/05/26 03:58:35;;;;;;;12.03;4.00;;;;;;;14.87;73.70;98902.91;1689197;83;21473;-69
2022/05/26 04:01:04;;;;;;;8.95;3.52;;;;;;;14.83;74.32;98905.59;1692150;84;21027;-69
2022/05/26 04:03:30;;;;;;;10.03;3.17;;;;;;;14.79;74.88;98907.45;1692156;84;21071;-66
2022/05/26 04:05:57;;;;;;;3.87;2.50;;;;;;;14.77;75.38;98900.10;1691703;84;22176;-71
2022/05/26 04:08:23;;;;;;;12.03;3.02;;;;;;;14.74;75.75;98909.13;1692607;84;21094;-64
2022/05/26 04:10:50;;;;;;;5.87;2.98;;;;;;;14.71;76.19;98914.02;1692295;84;21092;-70
2022/05/26 04:13:17;;;;;;;8.38;3.00;;;;;;;14.69;76.35;98913.56;1691951;84;21059;-70
2022/05/26 04:15:45;;;;;;;8.23;2.87;;;;;;;14.65;76.59;98914.90;1692236;84;21027;-71
2022/05/26 04:18:12;;;;;;;8.75;3.12;;;;;;;14.64;77.09;98922.98;1692308;84;21149;-75
2022/05/26 04:20:38;;;;;;;11.45;2.85;;;;;;;14.59;77.69;98919.10;1692140;84;21071;-73
2022/05/26 04:23:06;;;;;;;10.98;2.85;;;;;;;14.51;78.27;98919.54;1692065;84;21786;-71
2022/05/26 04:25:33;;;;;;;6.80;3.30;;;;;;;14.42;78.85;98922.50;1691897;84;21046;-71
2022/05/26 04:28:00;;;;;;;9.75;3.00;;;;;;;14.38;79.24;98921.60;1691961;84;21083;-68
2022/05/26 04:30:28;;;;;;;11.80;3.08;;;;;;;14.35;79.61;98919.56;1692429;84;21135;-66
2022/05/26 04:32:56;;;;;;;6.22;3.10;;;;;;;14.31;79.89;98915.92;1692523;84;21028;-69
2022/05/26 04:35:22;;;;;;;5.62;2.80;;;;;;;14.28;80.23;98918.81;1691463;83;21059;-68
2022/05/26 04:37:51;;;;;;;9.70;2.80;;;;;;;14.23;80.59;98919.90;1692564;83;21004;-70
2022/05/26 04:40:18;;;;;;;6.25;3.00;;;;;;;14.21;80.77;98916.67;1704249;84;21335;-69
2022/05/26 04:42:44;;;;;;;18.20;3.83;;;;;;;14.24;80.92;98913.18;1728139;82;21273;-68
2022/05/26 04:45:14;;;;;;;8.90;2.98;;;;;;;14.27;80.88;98913.06;1702027;82;21036;-70
2022/05/26 04:47:42;;;;;;;7.60;3.30;;;;;;;14.28;81.02;98909.11;1701726;83;21067;-70
2022/05/26 04:50:11;;;;;;;4.60;2.65;;;;;;;14.25;81.25;98900.14;1701452;84;21016;-69
2022/05/26 04:52:37;;;;;;;7.15;3.02;;;;;;;14.23;81.45;98906.62;1702003;83;21074;-68
2022/05/26 04:55:06;;;;;;;4.85;2.83;;;;;;;14.21;81.66;98906.20;1701882;83;21254;-68
2022/05/26 04:57:33;;;;;;;8.95;2.98;;;;;;;14.21;82.01;98908.36;1701438;84;21039;-68
2022/05/26 05:00:00;;;;;;;6.28;3.15;;;;;;;14.25;82.08;98905.69;1701430;84;21016;-65
2022/05/26 05:02:26;;;;;;;8.40;3.27;;;;;;;14.30;82.15;98909.56;1704038;82;21060;-67
2022/05/26 05:04:53;;;;;;;9.70;3.55;;;;;;;14.32;82.34;98910.02;1701422;84;21071;-70
2022/05/26 05:07:21;;;;;;;9.93;2.92;;;;;;;14.34;82.53;98916.00;1701701;82;21088;-67
2022/05/26 05:09:48;;;;;;;4.47;2.83;;;;;;;14.32;82.74;98912.78;1701650;84;21083;-69
2022/05/26 05:12:19;;;;;;;9.63;3.60;;;;;;;14.31;82.90;98916.70;1691243;84;21076;-68
2022/05/26 05:14:49;;;;;;;5.28;2.90;;;;;;;14.31;83.28;98911.16;1701555;84;21027;-70
2022/05/26 05:17:17;;;;;;;6.15;3.00;;;;;;;14.31;83.60;98921.45;1701324;82;21048;-69
2022/05/26 05:19:44;;;;;;;6.40;2.90;;;;;;;14.30;83.79;98915.11;1701046;82;21853;-68
2022/05/26 05:22:35;;;;;;;5.87;3.22;;;;;;;14.29;84.03;98916.28;1705640;82;21001;-66
2022/05/26 05:25:18;;;;;;;12.15;3.65;;;;;;;14.27;84.30;98915.83;1701150;84;21019;-69
2022/05/26 05:27:56;;;;;;;7.15;3.10;;;;;;;14.28;84.63;98920.20;1700792;82;21588;-68
2022/05/26 05:30:39;;;;;;;8.88;3.40;;;;;;;14.30;84.92;98917.06;1701742;83;21476;-67
2022/05/26 05:33:15;;;;;;;7.22;3.98;;;;;;;14.31;85.15;98918.08;1700242;83;21210;-67
2022/05/26 05:35:51;;;;;;;6.80;3.27;;;;;;;14.34;85.45;98922.94;1700693;83;21083;-64
2022/05/26 05:38:18;;;;;;;9.78;3.83;;;;;;;14.37;85.79;98931.09;1693344;83;21063;-64
2022/05/26 05:40:46;;;;;;;11.93;3.40;;;;;;;14.38;86.16;98932.69;1700901;83;21083;-64
2022/05/26 05:43:13;;;;;;;11.97;3.10;;;;;;;14.36;86.58;98930.28;1697796;82;21103;-61
2022/05/26 05:45:39;;;;;;;5.80;3.65;;;;;;;14.34;87.03;98921.55;1694556;82;21137;-66
2022/05/26 05:48:07;;;;;;;9.23;3.58;;;;;;;14.37;87.50;98926.94;1694061;83;21043;-66
2022/05/26 05:50:34;;;;;;;5.35;3.20;;;;;;;14.40;87.89;98932.36;1690730;82;21026;-69
2022/05/26 05:53:01;;;;;;;10.25;3.25;;;;;;;14.43;88.19;98927.47;1693260;82;20992;-65
2022/05/26 05:55:30;;;;;;;5.72;3.85;;;;;;;14.43;88.52;98937.95;1694581;82;21107;-65
2022/05/26 05:57:56;;;;;;;3.58;2.70;;;;;;;14.46;88.80;98936.45;1689983;82;22048;-65
2022/05/26 06:00:23;;;;;;;7.87;3.87;;;;;;;14.48;89.05;98932.73;1700532;82;21233;-64
2022/05/26 06:02:50;;;;;;;10.75;4.22;;;;;;;14.52;89.28;98946.08;1695457;82;21080;-67
2022/05/26 06:05:17;;;;;;;11.22;3.72;;;;;;;14.54;89.57;98947.91;1691127;82;21016;-68
2022/05/26 06:07:45;;;;;;;5.67;3.27;;;;;;;14.55;89.81;98946.73;1681759;82;21547;-68
2022/05/26 06:10:13;;;;;;;4.60;3.10;;;;;;;14.56;90.24;98955.87;1689943;82;21144;-68
2022/05/26 06:12:42;;;;;;;5.33;2.83;;;;;;;14.57;90.62;98956.08;1695672;82;21047;-67
2022/05/26 06:15:11;;;;;;;7.85;3.10;;;;;;;14.61;90.91;98962.52;1700913;82;21046;-68
2022/05/26 06:17:38;;;;;;;4.40;2.30;;;;;;;14.61;91.13;98961.13;1675097;83;21055;-68
2022/05/26 06:20:09;;;;;;;4.50;1.85;;;;;;;14.57;91.11;98958.84;1696387;82;21079;-67
2022/05/26 06:22:38;;;;;;;3.40;2.02;;;;;;;14.54;91.21;98965.12;1695490;82;21761;-67
2022/05/26 06:25:05;;;;;;;3.37;2.22;;;;;;;14.52;91.44;98962.70;1696110;83;21055;-66
2022/05/26 06:30:19;;;;;;;3.40;1.82;;;;;;;14.48;92.04;98962.63;1693178;82;21031;-67
2022/05/26 06:38:21;;;;;;;3.17;1.50;;;;;;;14.50;92.23;98955.33;1687038;82;21513;-64
2022/05/26 06:40:48;;;;;;;1.57;1.47;;;;;;;14.50;92.58;98956.72;1690066;82;21246;-68
2022/05/26 06:43:15;;;;;;;1.55;1.40;;;;;;;14.47;92.23;98962.41;1695236;83;21559;-67
2022/05/26 06:45:45;;;;;;;6.62;1.42;;;;;;;14.47;92.46;98968.53;1701333;83;21059;-67
2022/05/26 06:48:13;;;;;;;2.20;1.12;;;;;;;14.49;92.54;98977.30;1701165;83;21047;-64
2022/05/26 06:50:40;;;;;;;1.52;0.95;;;;;;;14.46;92.43;98989.10;1685219;84;21123;-66
2022/05/26 06:53:06;;;;;;;1.32;1.22;;;;;;;14.43;92.41;98981.52;1701814;83;21103;-66
2022/05/26 06:55:33;;;;;;;2.40;1.65;;;;;;;14.36;92.06;98996.00;1700951;84;21091;-63
2022/05/26 06:58:00;;;;;;;3.92;1.72;;;;;;;14.35;92.33;99006.84;1701885;84;21051;-63
2022/05/26 07:00:26;;;;;;;2.42;1.47;;;;;;;14.31;92.07;99009.52;1701446;82;21134;-67
2022/05/26 07:02:53;;;;;;;1.60;1.20;;;;;;;14.28;91.93;99008.08;1695760;82;21554;-66
2022/05/26 07:05:21;;;;;;;2.55;1.75;;;;;;;14.22;91.82;99008.91;1694458;82;21257;-65
2022/05/26 07:07:48;;;;;;;1.45;1.35;;;;;;;14.13;92.10;99004.93;1699523;82;21016;-66
2022/05/26 07:10:14;;;;;;;2.10;1.20;;;;;;;14.12;92.48;99005.50;1697420;82;21055;-67
2022/05/26 07:12:41;;;;;;;3.95;1.55;;;;;;;14.08;92.47;99006.01;1702437;82;21780;-65
2022/05/26 07:15:09;;;;;;;3.65;1.60;;;;;;;14.05;92.55;99009.50;1696003;82;21101;-66
2022/05/26 07:17:37;;;;;;;3.80;2.35;;;;;;;14.04;93.00;99002.33;1693565;82;21556;-61
2022/05/26 07:20:07;;;;;;;2.75;2.02;;;;;;;14.05;93.05;99006.73;1695841;83;21571;-65
2022/05/26 07:22:34;;;;;;;2.20;1.60;;;;;;;14.11;93.03;99008.06;1694427;82;21536;-64
2022/05/26 07:25:00;;;;;;;5.00;2.08;;;;;;;14.10;92.69;99012.00;1691801;83;22672;-61
2022/05/26 07:27:27;;;;;;;5.00;2.35;;;;;;;14.11;92.86;99013.59;1694285;82;21016;-63
2022/05/26 07:29:54;;;;;;;3.25;2.05;;;;;;;14.10;92.45;99016.73;1695395;82;21095;-61
2022/05/26 07:32:25;;;;;;;3.00;1.60;;;;;;;14.09;92.33;99019.28;1692831;82;21548;-62
2022/05/26 07:34:51;;;;;;;3.58;1.02;;;;;;;14.05;92.26;99011.45;1694459;82;21168;-64
2022/05/26 07:42:50;;;;;;;3.45;1.70;;;;;;;14.03;92.42;99008.23;1689937;83;21060;-61
2022/05/26 07:45:16;;;;;;;2.95;1.80;;;;;;;14.08;92.61;99005.20;1692599;82;21123;-65
2022/05/26 07:47:44;;;;;;;2.40;2.00;;;;;;;14.11;92.66;99016.37;1692530;82;20995;-65
2022/05/26 07:50:19;;;;;;;3.40;1.40;;;;;;;14.20;92.86;99021.74;1691463;82;21149;-64
2022/05/26 07:52:41;;;;;;;4.55;1.67;;;;;;;14.28;92.53;99024.09;1700245;82;21122;-59
2022/05/26 07:55:08;;;;;;;2.30;1.72;;;;;;;14.26;91.98;99024.25;1702451;82;21048;-66
2022/05/26 07:57:35;;;;;;;2.20;2.00;;;;;;;14.29;92.18;99024.91;1697676;82;21063;-65
2022/05/26 08:00:01;;;;;;;2.25;1.45;;;;;;;14.34;92.16;99026.84;1702662;82;21083;-63
2022/05/26 08:02:30;;;;;;;5.37;1.62;;;;;;;14.50;92.95;99028.78;1700444;82;22176;-61
2022/05/26 08:04:57;;;;;;;1.70;1.55;;;;;;;14.68;92.51;99033.95;1701893;82;21547;-60
2022/05/26 08:07:23;;;;;;;1.80;1.70;;;;;;;14.80;92.15;99036.66;1700725;82;21608;-61
2022/05/26 08:09:50;;;;;;;4.47;1.45;;;;;;;14.88;91.11;99039.58;1703053;82;21059;-63
2022/05/26 08:12:17;;;;;;;1.92;1.55;;;;;;;14.87;90.38;99049.08;1700806;82;21148;-60
2022/05/26 08:14:44;;;;;;;1.70;1.37;;;;;;;14.92;90.14;99045.45;1700347;82;21097;-64
2022/05/26 08:17:14;;;;;;;2.30;1.80;;;;;;;15.00;89.93;99047.80;1703708;82;21023;-64
2022/05/26 08:19:41;;;;;;;3.58;2.17;;;;;;;15.08;88.78;99049.56;1730985;82;21030;-65
2022/05/26 08:22:09;;;;;;;11.88;3.65;;;;;;;15.23;88.59;99046.30;1730970;82;21070;-65
2022/05/26 08:24:37;;;;;;;6.87;3.27;;;;;;;15.39;87.30;99051.77;1730523;81;21058;-60
2022/05/26 08:27:04;;;;;;;7.75;3.08;;;;;;;15.55;86.94;99053.92;1731127;82;21275;-63
2022/05/26 08:29:31;;;;;;;4.75;1.70;;;;;;;15.75;86.48;99052.52;1731086;82;22324;-64
2022/05/26 08:31:58;;;;;;;6.37;1.07;;;;;;;16.00;86.68;99058.38;1730831;82;21071;-64
2022/05/26 08:34:26;;;;;;;2.58;1.10;;;;;;;16.21;85.30;99063.50;1731018;82;21067;-63
2022/05/26 08:36:52;;;;;;;2.17;1.00;;;;;;;16.30;82.20;99079.94;1732831;81;21043;-65
2022/05/26 08:39:19;;;;;;;2.50;1.22;;;;;;;16.19;77.31;99067.23;1731364;81;21138;-65
2022/05/26 08:41:49;;;;;;;1.47;1.07;;;;;;;16.11;78.71;99066.88;1731344;82;20996;-63
2022/05/26 08:44:32;;;;;;;1.27;1.15;;;;;;;16.16;78.73;99077.13;1731868;82;21075;-65
2022/05/26 08:47:10;;;;;;;1.20;1.10;;;;;;;16.32;78.29;99069.84;1731715;81;21080;-65
2022/05/26 08:50:17;;;;;;;2.98;1.20;;;;;;;16.53;77.45;99077.77;1731482;81;21070;-64
2022/05/26 08:53:12;;;;;;;4.53;1.40;;;;;;;16.63;76.39;99072.16;1729735;81;21388;-64
2022/05/26 08:55:44;;;;;;;13.20;1.82;;;;;;;16.69;76.02;99069.84;1713856;81;20999;-67
2022/05/26 08:58:20;;;;;;;11.12;1.55;;;;;;;16.81;75.38;99065.48;1729797;81;21094;-65
2022/05/26 09:00:50;;;;;;;1.00;0.90;;;;;;;16.97;75.34;99065.91;1730339;82;21000;-63
2022/05/26 09:03:37;;;;;;;5.10;1.10;;;;;;;17.09;74.20;99076.02;1731718;81;21099;-63
2022/05/26 09:06:14;;;;;;;5.10;1.05;;;;;;;17.19;72.74;99066.24;1728482;81;21665;-62
2022/05/26 09:14:21;;;;;;;2.90;1.20;;;;;;;17.55;70.41;99067.31;1730349;81;21102;-63
2022/05/26 09:16:48;;;;;;;2.72;1.10;;;;;;;17.68;69.58;99067.85;1730991;81;26938;-64
2022/05/26 09:19:21;;;;;;;6.33;0.80;;;;;;;17.76;68.76;99067.56;1725935;81;21286;-64
2022/05/26 09:21:51;;;;;;;2.40;0.98;;;;;;;17.85;68.03;99073.42;1706208;83;21367;-64
2022/05/26 09:24:41;;;;;;;8.08;1.35;;;;;;;17.89;67.26;99078.45;1725845;81;21173;-61
2022/05/26 09:27:25;;;;;;;3.00;1.00;;;;;;;17.97;68.25;99075.14;1724809;83;21039;-62
2022/05/26 09:29:51;;;;;;;4.60;1.20;;;;;;;18.17;68.61;99078.56;1709203;81;21126;-63
2022/05/26 09:32:18;;;;;;;4.35;1.00;;;;;;;18.40;66.30;99082.37;1725621;81;21258;-63
2022/05/26 09:35:08;;;;;;;4.17;1.00;;;;;;;18.55;66.05;99087.47;1730006;81;21047;-65
2022/05/26 09:37:40;;;;;;;4.22;0.80;;;;;;;18.63;63.66;99082.16;1722556;81;21007;-65
2022/05/26 09:40:35;;;;;;;1.90;0.80;;;;;;;18.67;63.52;99076.03;1726051;81;21035;-65
2022/05/26 09:43:08;;;;;;;4.97;0.78;;;;;;;18.75;63.71;99077.48;1726440;83;21071;-65
2022/05/26 09:45:47;;;;;;;4.83;1.00;;;;;;;18.85;62.55;99075.38;1718121;81;21280;-63
2022/05/26 09:48:27;;;;;;;5.67;1.22;;;;;;;18.88;63.03;99082.16;1706475;81;21094;-64
2022/05/26 09:51:30;;;;;;;2.95;1.10;;;;;;;18.92;60.79;99081.60;1700575;81;21523;-63
2022/05/26 09:53:56;;;;;;;2.83;1.30;;;;;;;18.91;60.76;99079.39;1724876;82;21010;-65
2022/05/26 09:56:40;;;;;;;6.00;1.07;;;;;;;18.87;60.62;99081.34;1702502;82;21071;-64
2022/05/26 09:59:33;;;;;;;2.27;1.25;;;;;;;18.87;60.98;99077.16;1698798;82;21784;-64
2022/05/26 10:02:15;;;;;;;5.37;1.17;;;;;;;18.85;58.99;99071.19;1706420;82;21366;-65
2022/05/26 10:05:11;;;;;;;6.37;0.98;;;;;;;18.77;60.96;99082.88;1700239;82;21054;-60
2022/05/26 10:08:19;;;;;;;4.90;1.20;;;;;;;18.92;61.28;99079.59;1690692;83;22181;-65
2022/05/26 10:11:05;;;;;;;1.65;0.90;;;;;;;19.06;60.32;99076.69;1732926;81;21048;-63
2022/05/26 10:13:53;;;;;;;2.42;0.90;;;;;;;19.13;58.97;99072.58;1690879;82;21058;-65
2022/05/26 10:16:44;;;;;;;2.52;1.15;;;;;;;19.25;58.60;99070.64;1694153;82;21495;-64
2022/05/26 10:19:56;;;;;;;4.00;1.47;;;;;;;19.37;57.17;99081.49;1707832;81;21060;-65
2022/05/26 10:22:34;;;;;;;6.55;1.12;;;;;;;19.44;56.41;99084.33;1755960;81;20986;-68
2022/05/26 10:25:27;;;;;;;5.33;0.95;;;;;;;19.48;56.27;99082.14;1737709;81;21054;-67
2022/05/26 10:28:05;;;;;;;5.20;0.93;;;;;;;19.53;56.48;99081.77;1734293;81;21154;-65
2022/05/26 10:30:47;;;;;;;3.80;0.88;;;;;;;19.53;56.07;99087.36;1734576;81;21059;-67
2022/05/26 10:33:43;;;;;;;1.10;0.88;;;;;;;19.62;56.56;99089.80;1732515;81;21011;-69
2022/05/26 10:36:27;;;;;;;4.25;1.12;;;;;;;19.64;54.53;99082.61;1734150;81;21054;-66
2022/05/26 10:39:00;;;;;;;3.67;1.10;;;;;;;19.60;54.24;99097.17;1734282;82;21056;-69
2022/05/26 10:41:55;;;;;;;5.47;1.25;;;;;;;19.55;53.75;99094.14;1734369;82;21271;-68
2022/05/26 10:45:13;;;;;;;4.80;1.30;;;;;;;19.54;52.35;99092.55;1713750;82;21764;-65
2022/05/26 10:48:08;;;;;;;2.00;0.82;;;;;;;19.46;51.23;99088.91;1734664;82;20983;-68
2022/05/26 10:50:41;;;;;;;7.22;0.82;;;;;;;19.35;51.70;99090.84;1734666;82;21605;-64
2022/05/26 10:53:26;;;;;;;2.62;0.98;;;;;;;19.27;51.35;99101.19;1738664;81;21070;-66
2022/05/26 10:56:22;;;;;;;3.87;0.90;;;;;;;19.19;52.26;99097.53;1731932;81;21718;-66
2022/05/26 10:58:55;;;;;;;5.97;1.60;;;;;;;19.18;51.93;99108.52;1734563;81;20999;-67
2022/05/26 11:01:42;;;;;;;5.03;1.40;;;;;;;19.24;53.31;99095.58;1734694;82;21078;-65
2022/05/26 11:04:17;;;;;;;4.95;0.78;;;;;;;19.38;53.69;99093.47;1737560;81;21023;-67
2022/05/26 11:06:44;;;;;;;5.15;1.42;;;;;;;19.42;53.54;99105.45;1737211;81;21023;-66
2022/05/26 11:09:34;;;;;;;4.42;0.88;;;;;;;19.43;51.18;99101.48;1751133;81;21074;-65
2022/05/26 11:12:05;;;;;;;2.33;0.80;;;;;;;19.38;51.21;99094.25;1720217;81;21914;-65
2022/05/26 11:17:46;;;;;;;1.87;0.90;;;;;;;19.33;51.16;99107.19;1736479;81;21043;-63
2022/05/26 11:20:26;;;;;;;3.10;1.22;;;;;;;19.43;51.93;99105.67;1724906;81;21036;-66
2022/05/26 11:22:55;;;;;;;8.50;0.90;;;;;;;19.53;51.16;99111.10;1725222;81;21160;-64
2022/05/26 11:25:26;;;;;;;5.75;1.10;;;;;;;19.51;50.13;99103.70;1691564;83;21009;-67
2022/05/26 11:28:07;;;;;;;9.58;1.25;;;;;;;19.45;51.48;99104.08;1675091;82;21082;-66
2022/05/26 11:36:54;;;;;;;5.12;1.10;;;;;;;19.69;49.57;99107.97;1702047;84;21075;-67
2022/05/26 11:39:39;;;;;;;2.00;0.90;;;;;;;19.80;49.76;99106.63;1703457;84;38526;-64
2022/05/26 11:42:09;;;;;;;1.95;0.90;;;;;;;19.97;49.79;99103.69;1681323;84;21077;-66
2022/05/26 11:44:42;;;;;;;6.78;1.00;;;;;;;20.09;49.71;99099.76;1703067;84;21083;-66
2022/05/26 11:47:18;;;;;;;;;;;;;;;20.15;49.35;99107.14;1703129;82;21078;-66
2022/05/26 11:49:51;;;;;;;3.75;1.30;;;;;;;20.17;48.95;99099.98;1703395;84;21134;-67
2022/05/26 11:52:26;;;;;;;4.62;1.10;;;;;;;20.16;48.92;99101.16;1704162;84;20900;-66
2022/05/26 11:55:04;;;;;;;8.27;0.90;;;;;;;20.09;48.58;99098.36;1700224;84;21063;-65
2022/05/26 11:57:44;;;;;;;3.08;1.20;;;;;;;20.00;48.43;99109.89;1702912;84;21761;-67
2022/05/26 12:00:38;;;;;;;5.40;1.42;;;;;;;19.90;48.34;99109.25;1702784;84;21024;-67
2022/05/26 12:03:26;;;;;;;6.37;1.40;;;;;;;19.86;48.34;99109.84;1704031;82;21141;-67
2022/05/26 12:06:10;;;;;;;5.65;1.27;;;;;;;19.91;49.80;99107.45;1703821;84;21060;-68
2022/05/26 12:08:51;;;;;;;2.80;1.47;;;;;;;20.03;48.65;99109.09;1703336;84;21519;-63
2022/05/26 12:11:19;;;;;;;6.25;1.00;;;;;;;20.06;47.64;99108.33;1659911;82;21070;-68
2022/05/26 12:13:56;;;;;;;3.98;1.50;;;;;;;19.98;47.73;99113.67;1687202;82;20991;-67
2022/05/26 12:16:27;;;;;;;1.87;1.20;;;;;;;19.88;47.40;99119.43;1705314;82;21238;-66
2022/05/26 12:19:04;;;;;;;6.62;1.00;;;;;;;19.70;47.62;99120.14;1721588;83;21044;-66
2022/05/26 12:21:39;;;;;;;5.90;1.15;;;;;;;19.65;48.22;99118.34;1703615;82;21011;-66
2022/05/26 12:24:37;;;;;;;14.40;2.12;;;;;;;19.74;49.06;99111.78;1719399;83;21140;-64
2022/05/26 12:27:04;;;;;;;7.60;1.35;;;;;;;19.84;47.90;99120.00;1702493;82;21074;-66
2022/05/26 12:29:59;;;;;;;5.83;1.40;;;;;;;19.91;47.17;99120.03;1703254;82;21133;-66
2022/05/26 12:32:31;;;;;;;4.67;1.45;;;;;;;19.98;47.48;99120.66;1705812;82;21094;-64
2022/05/26 12:35:28;;;;;;;9.75;1.32;;;;;;;20.05;48.35;99115.71;1699592;82;21099;-64
2022/05/26 12:38:23;;;;;;;4.47;1.10;;;;;;;20.04;47.29;99113.53;1701178;82;21007;-65
2022/05/26 12:41:16;;;;;;;4.17;1.10;;;;;;;19.95;46.61;99118.06;1699983;82;21063;-64